Time;durP1;ratioP1;P1;durP2;ratioP2;P2;SDS_P1;SDS_P2;PMS_P1;PMS_P2;Temp;Humidity;BMP_temperature;BMP_pressure;BME280_temperature;BME280_humidity;BME280_pressure;Samples;Min_cycle;Max_cycle;Signal;HPM_P1;HPM_P2
2023/03/30 00:01:04;;;;;;;6.40;2.27;;;14.30;60.10;;;;;;5029142;28;20459;-68
2023/03/30 00:03:32;;;;;;;6.83;2.67;;;14.10;61.70;;;;;;5028544;28;20454;-69
2023/03/30 00:06:04;;;;;;;4.57;2.63;;;14.00;59.90;;;;;;5029130;28;20935;-68
2023/03/30 00:08:32;;;;;;;6.13;2.73;;;14.00;59.50;;;;;;5029031;28;20476;-67
2023/03/30 00:11:04;;;;;;;8.00;2.53;;;14.10;59.70;;;;;;5029707;28;20453;-70
2023/03/30 00:13:32;;;;;;;7.80;3.20;;;14.20;59.50;;;;;;5028948;28;20456;-68
2023/03/30 00:15:58;;;;;;;7.57;2.87;;;14.30;59.20;;;;;;5029273;28;20477;-66
2023/03/30 00:18:26;;;;;;;10.33;2.63;;;14.50;59.30;;;;;;5029328;28;20460;-69
2023/03/30 00:20:53;;;;;;;7.70;3.20;;;14.50;58.90;;;;;;5028965;28;20491;-68
2023/03/30 00:23:21;;;;;;;7.30;2.20;;;14.40;59.20;;;;;;5029086;28;20456;-68
2023/03/30 00:25:49;;;;;;;10.27;3.23;;;14.40;59.00;;;;;;5029036;28;20441;-68
2023/03/30 00:28:16;;;;;;;7.53;2.70;;;14.40;59.20;;;;;;5029066;28;20990;-68
2023/03/30 00:30:42;;;;;;;10.90;3.00;;;14.40;59.10;;;;;;5031048;28;20448;-67
2023/03/30 00:33:09;;;;;;;6.13;2.50;;;14.40;59.30;;;;;;5032397;28;20456;-68
2023/03/30 00:35:36;;;;;;;9.10;2.93;;;14.40;60.00;;;;;;5032746;28;20456;-68
2023/03/30 00:38:04;;;;;;;9.30;2.60;;;14.40;59.20;;;;;;5032408;28;20476;-68
2023/03/30 00:40:33;;;;;;;7.53;3.30;;;14.30;59.50;;;;;;5032929;28;20545;-68
2023/03/30 00:43:01;;;;;;;8.67;3.60;;;14.40;59.90;;;;;;5032450;28;20537;-68
2023/03/30 00:45:29;;;;;;;10.60;2.90;;;14.30;60.10;;;;;;5032662;28;20456;-68
2023/03/30 00:48:01;;;;;;;6.00;2.93;;;14.40;59.40;;;;;;5032666;28;20513;-69
2023/03/30 00:50:33;;;;;;;5.87;2.50;;;14.50;59.90;;;;;;5033279;28;20465;-69
2023/03/30 00:53:05;;;;;;;5.47;2.60;;;14.50;60.40;;;;;;5033179;28;20453;-68
2023/03/30 00:55:35;;;;;;;11.50;2.90;;;14.50;59.90;;;;;;5032743;28;20456;-69
2023/03/30 00:58:05;;;;;;;8.77;3.20;;;14.60;59.50;;;;;;5032596;28;20468;-68
2023/03/30 01:00:33;;;;;;;13.33;2.63;;;14.70;59.00;;;;;;5032110;28;20486;-69
2023/03/30 01:03:05;;;;;;;6.63;3.23;;;14.90;57.90;;;;;;5032420;28;20456;-68
2023/03/30 01:05:32;;;;;;;6.50;3.00;;;15.10;57.80;;;;;;5032280;28;20459;-67
2023/03/30 01:07:59;;;;;;;8.53;2.67;;;15.10;57.80;;;;;;5032104;28;20465;-70
2023/03/30 01:10:25;;;;;;;7.13;3.50;;;15.10;58.40;;;;;;5032318;28;20452;-68
2023/03/30 01:12:52;;;;;;;9.33;3.80;;;14.90;58.90;;;;;;5031700;28;20444;-68
2023/03/30 01:15:22;;;;;;;10.33;3.20;;;14.90;59.90;;;;;;5032072;28;20480;-69
2023/03/30 01:18:12;;;;;;;7.50;2.80;;;14.80;59.70;;;;;;5032033;28;20553;-68
2023/03/30 01:21:06;;;;;;;5.33;2.67;;;14.80;60.10;;;;;;5032468;28;20459;-68
2023/03/30 01:24:06;;;;;;;11.90;2.77;;;14.80;60.00;;;;;;5031564;28;20948;-69
2023/03/30 01:26:44;;;;;;;8.43;2.90;;;14.80;60.00;;;;;;5032409;28;20852;-68
2023/03/30 01:29:19;;;;;;;9.50;3.00;;;14.90;60.00;;;;;;5032005;28;20904;-69
2023/03/30 01:32:23;;;;;;;7.93;3.80;;;14.90;59.50;;;;;;5032064;28;20455;-67
2023/03/30 01:35:01;;;;;;;11.77;3.50;;;14.90;60.00;;;;;;4995709;28;20803;-69
2023/03/30 01:38:02;;;;;;;7.17;3.27;;;15.00;59.90;;;;;;5031622;28;20493;-69
2023/03/30 01:40:35;;;;;;;6.67;2.40;;;15.00;60.80;;;;;;5031570;28;20840;-68
2023/03/30 01:43:10;;;;;;;8.50;2.73;;;14.80;65.10;;;;;;5031408;28;20495;-69
2023/03/30 01:45:44;;;;;;;9.07;2.80;;;14.50;65.40;;;;;;5031727;28;20716;-68
2023/03/30 01:48:15;;;;;;;9.67;4.13;;;14.20;68.90;;;;;;5031389;28;20807;-68
2023/03/30 01:50:46;;;;;;;11.40;3.80;;;14.00;71.10;;;;;;5031527;28;20451;-68
2023/03/30 01:53:16;;;;;;;15.27;4.60;;;13.80;70.60;;;;;;5031230;28;20453;-67
2023/03/30 01:55:49;;;;;;;11.23;2.83;;;13.70;71.90;;;;;;5031613;28;20448;-68
2023/03/30 01:58:21;;;;;;;9.97;3.50;;;13.60;72.90;;;;;;5031267;28;20516;-68
2023/03/30 02:00:50;;;;;;;11.60;3.87;;;13.70;72.10;;;;;;5031381;28;20454;-68
2023/03/30 02:03:22;;;;;;;14.27;3.30;;;13.70;72.60;;;;;;5030615;28;20448;-68
2023/03/30 02:05:53;;;;;;;9.50;3.33;;;13.70;71.60;;;;;;5031402;28;20445;-68
2023/03/30 02:08:24;;;;;;;8.70;3.10;;;13.80;72.00;;;;;;5031416;28;20468;-68
2023/03/30 02:10:54;;;;;;;10.57;3.63;;;13.80;72.90;;;;;;5031065;28;20818;-70
2023/03/30 02:13:23;;;;;;;13.03;3.60;;;13.70;73.70;;;;;;5030984;28;20449;-69
2023/03/30 02:15:55;;;;;;;7.50;2.77;;;13.80;73.60;;;;;;5031066;28;20460;-68
2023/03/30 02:18:22;;;;;;;7.93;3.47;;;13.90;73.40;;;;;;5031113;28;20468;-68
2023/03/30 02:20:49;;;;;;;9.40;2.97;;;13.90;73.90;;;;;;5030802;28;20455;-69
2023/03/30 02:23:18;;;;;;;10.70;3.63;;;14.00;73.80;;;;;;5030580;28;20459;-69
2023/03/30 02:25:46;;;;;;;8.77;2.67;;;14.00;74.10;;;;;;5030629;28;20978;-67
2023/03/30 02:28:15;;;;;;;9.37;2.53;;;14.10;74.30;;;;;;5030401;28;20457;-68
2023/03/30 02:30:45;;;;;;;9.33;3.50;;;14.20;72.90;;;;;;5030992;28;20526;-69
2023/03/30 02:33:21;;;;;;;7.47;2.93;;;14.20;72.90;;;;;;5030217;28;20962;-68
2023/03/30 02:36:00;;;;;;;14.37;4.07;;;14.30;73.80;;;;;;5030766;28;20449;-68
2023/03/30 02:39:03;;;;;;;8.73;3.27;;;14.30;72.80;;;;;;5030220;28;20833;-68
2023/03/30 02:42:03;;;;;;;9.17;3.27;;;14.30;73.30;;;;;;5030449;28;20521;-68
2023/03/30 02:44:41;;;;;;;10.10;2.90;;;14.30;73.50;;;;;;5014495;28;20459;-68
2023/03/30 02:47:12;;;;;;;8.23;3.10;;;14.30;73.30;;;;;;5030453;28;20439;-68
2023/03/30 02:49:51;;;;;;;10.33;2.97;;;14.30;72.50;;;;;;5030078;28;20994;-69
2023/03/30 02:52:32;;;;;;;10.97;4.20;;;14.30;73.00;;;;;;5030151;28;20441;-68
2023/03/30 02:55:09;;;;;;;6.20;2.63;;;14.30;73.20;;;;;;5030016;28;20560;-68
2023/03/30 02:57:49;;;;;;;10.60;4.30;;;14.40;72.60;;;;;;5030114;28;20480;-68
2023/03/30 03:00:23;;;;;;;18.20;4.70;;;14.30;74.10;;;;;;5030025;28;20965;-67
2023/03/30 03:02:56;;;;;;;10.10;3.20;;;14.10;76.50;;;;;;5030003;28;20542;-68
2023/03/30 03:05:25;;;;;;;9.00;4.80;;;13.90;80.00;;;;;;5030204;28;20550;-69
2023/03/30 03:07:52;;;;;;;12.90;3.70;;;13.70;81.60;;;;;;5029795;28;20457;-69
2023/03/30 03:10:19;;;;;;;14.23;3.77;;;13.40;84.00;;;;;;5030186;28;20450;-68
2023/03/30 03:12:46;;;;;;;10.67;3.87;;;13.30;85.80;;;;;;5029771;28;20863;-69
2023/03/30 03:15:12;;;;;;;7.20;2.90;;;13.10;87.80;;;;;;5030441;28;20526;-67
2023/03/30 03:17:44;;;;;;;10.17;3.27;;;13.00;89.00;;;;;;5029835;28;20484;-68
2023/03/30 03:20:12;;;;;;;10.80;4.13;;;12.80;89.40;;;;;;5030135;28;20448;-68
2023/03/30 03:22:39;;;;;;;9.83;3.80;;;12.80;89.40;;;;;;5029902;28;20562;-68
2023/03/30 03:25:07;;;;;;;10.27;3.97;;;12.80;87.90;;;;;;5029927;28;20444;-68
2023/03/30 03:27:34;;;;;;;9.70;3.67;;;12.80;88.40;;;;;;5029978;28;20846;-67
2023/03/30 03:30:01;;;;;;;10.40;3.90;;;12.70;89.00;;;;;;5029743;28;20811;-69
2023/03/30 03:32:27;;;;;;;8.30;3.17;;;12.70;88.50;;;;;;5029474;28;20461;-68
2023/03/30 03:34:55;;;;;;;8.77;3.57;;;12.70;89.80;;;;;;5029229;28;20452;-68
2023/03/30 03:37:22;;;;;;;13.73;4.57;;;12.70;90.30;;;;;;5029803;28;20942;-68
2023/03/30 03:39:49;;;;;;;9.70;3.63;;;12.70;90.90;;;;;;5029434;28;20583;-70
2023/03/30 03:42:16;;;;;;;10.40;3.70;;;12.60;90.90;;;;;;5029448;28;20480;-68
2023/03/30 03:44:42;;;;;;;13.40;4.20;;;12.70;90.40;;;;;;5029565;28;20820;-68
2023/03/30 03:47:12;;;;;;;10.83;4.50;;;12.70;90.50;;;;;;5029235;28;20455;-68
2023/03/30 03:49:38;;;;;;;8.93;3.30;;;12.70;90.80;;;;;;5029828;28;20514;-68
2023/03/30 03:52:07;;;;;;;8.47;3.47;;;12.60;91.20;;;;;;5029376;28;20446;-69
2023/03/30 03:54:33;;;;;;;10.10;4.23;;;12.60;91.30;;;;;;5029212;28;20972;-68
2023/03/30 03:57:00;;;;;;;9.00;3.57;;;12.50;91.10;;;;;;5029502;28;20858;-68
2023/03/30 03:59:27;;;;;;;10.57;4.37;;;12.60;91.10;;;;;;5029035;28;20988;-68
2023/03/30 04:01:54;;;;;;;9.50;3.73;;;12.60;91.20;;;;;;5029410;28;20465;-69
2023/03/30 04:04:21;;;;;;;12.53;4.40;;;12.60;90.80;;;;;;5029158;28;20451;-66
2023/03/30 04:06:47;;;;;;;9.20;3.80;;;12.60;91.00;;;;;;5033334;28;20795;-66
2023/03/30 04:09:18;;;;;;;9.60;3.83;;;12.60;90.90;;;;;;5033306;28;20845;-69
2023/03/30 04:11:44;;;;;;;10.13;4.03;;;12.60;90.60;;;;;;5033363;28;20464;-67
2023/03/30 04:14:11;;;;;;;16.63;4.67;;;12.60;90.80;;;;;;5033070;28;20448;-68
2023/03/30 04:16:38;;;;;;;12.33;4.60;;;12.60;90.70;;;;;;5032876;28;20449;-68
2023/03/30 04:19:07;;;;;;;12.63;3.73;;;12.60;90.80;;;;;;5033184;28;20470;-69
2023/03/30 04:21:34;;;;;;;11.80;3.53;;;12.60;91.00;;;;;;5032990;28;20456;-69
2023/03/30 04:24:01;;;;;;;10.70;3.40;;;12.60;90.90;;;;;;5032971;28;20449;-68
2023/03/30 04:26:29;;;;;;;12.97;4.53;;;12.70;90.50;;;;;;5032960;28;20439;-68
2023/03/30 04:28:56;;;;;;;10.90;3.90;;;12.70;90.60;;;;;;5032667;28;20987;-67
2023/03/30 04:31:23;;;;;;;14.80;4.43;;;12.70;90.60;;;;;;5033177;28;20448;-67
2023/03/30 04:33:51;;;;;;;13.00;3.90;;;12.60;90.70;;;;;;5032551;28;20457;-67
2023/03/30 04:36:19;;;;;;;12.77;4.90;;;12.70;90.70;;;;;;5033145;28;20456;-67
2023/03/30 04:38:58;;;;;;;14.83;4.40;;;12.70;90.30;;;;;;5032435;28;20494;-70
2023/03/30 04:41:32;;;;;;;12.23;4.20;;;12.70;90.30;;;;;;5032907;28;20521;-69
2023/03/30 04:44:01;;;;;;;13.20;4.60;;;12.80;90.20;;;;;;5032910;28;20517;-69
2023/03/30 04:46:28;;;;;;;13.23;4.97;;;12.80;90.20;;;;;;5032842;28;20539;-68
2023/03/30 04:48:55;;;;;;;10.03;3.87;;;12.70;90.60;;;;;;5032655;28;20475;-67
2023/03/30 04:51:22;;;;;;;10.33;4.67;;;12.60;90.80;;;;;;5032383;28;20453;-66
2023/03/30 04:53:48;;;;;;;9.93;4.30;;;12.70;90.70;;;;;;5032207;28;20447;-68
2023/03/30 04:56:15;;;;;;;11.40;4.10;;;12.70;90.90;;;;;;5032254;28;20451;-67
2023/03/30 04:58:42;;;;;;;13.13;5.93;;;12.70;90.80;;;;;;5032656;28;20496;-66
2023/03/30 05:01:10;;;;;;;11.67;4.93;;;12.70;90.90;;;;;;5032642;28;20466;-70
2023/03/30 05:03:37;;;;;;;11.10;4.73;;;12.60;90.90;;;;;;5031800;28;20452;-70
2023/03/30 05:06:05;;;;;;;12.03;5.90;;;12.60;91.00;;;;;;5032584;28;20537;-67
2023/03/30 05:08:33;;;;;;;9.50;4.30;;;12.70;90.70;;;;;;5031888;28;20493;-67
2023/03/30 05:11:01;;;;;;;16.90;4.63;;;12.80;90.30;;;;;;5032459;28;20525;-68
2023/03/30 05:13:28;;;;;;;15.83;4.00;;;12.90;90.00;;;;;;5032076;28;20447;-67
2023/03/30 05:15:55;;;;;;;15.67;4.00;;;13.00;89.80;;;;;;5032226;28;20459;-68
2023/03/30 05:18:23;;;;;;;15.37;6.80;;;13.00;89.80;;;;;;5032224;28;20498;-68
2023/03/30 05:20:50;;;;;;;13.60;4.90;;;12.90;89.40;;;;;;5032067;28;20463;-68
2023/03/30 05:23:17;;;;;;;14.67;3.93;;;13.00;89.10;;;;;;5031908;28;20451;-66
2023/03/30 05:25:47;;;;;;;12.23;4.43;;;13.00;89.60;;;;;;5032012;28;20445;-68
2023/03/30 05:28:15;;;;;;;9.77;3.80;;;12.90;90.00;;;;;;5032198;28;20567;-68
2023/03/30 05:30:42;;;;;;;14.43;4.03;;;12.80;90.10;;;;;;5031964;28;20453;-67
2023/03/30 05:33:09;;;;;;;10.43;4.40;;;12.80;90.50;;;;;;5031636;28;20458;-67
2023/03/30 05:35:37;;;;;;;16.53;7.13;;;12.90;90.00;;;;;;5031675;28;20514;-68
2023/03/30 05:38:06;;;;;;;12.43;4.50;;;12.90;90.00;;;;;;5031809;28;20495;-66
2023/03/30 05:40:33;;;;;;;12.63;5.03;;;12.90;90.10;;;;;;5031815;28;20514;-66
2023/03/30 05:42:59;;;;;;;11.30;4.20;;;12.90;90.20;;;;;;5031335;28;20464;-67
2023/03/30 05:45:26;;;;;;;14.60;5.10;;;12.90;90.20;;;;;;5031842;28;20445;-66
2023/03/30 05:47:54;;;;;;;14.37;4.53;;;12.90;90.30;;;;;;5031467;28;20464;-66
2023/03/30 05:50:20;;;;;;;11.60;4.20;;;13.00;90.20;;;;;;5031661;28;20449;-67
2023/03/30 05:52:49;;;;;;;13.53;4.60;;;12.90;90.20;;;;;;5033786;28;20545;-66
2023/03/30 05:55:16;;;;;;;10.33;3.90;;;13.00;90.10;;;;;;5034063;28;20452;-66
2023/03/30 05:57:44;;;;;;;13.60;3.80;;;13.00;90.20;;;;;;5032787;28;20492;-68
2023/03/30 06:00:14;;;;;;;12.57;5.40;;;13.10;90.00;;;;;;5031922;28;20459;-67
2023/03/30 06:02:41;;;;;;;9.10;4.40;;;13.10;89.60;;;;;;5030965;28;20547;-68
2023/03/30 06:05:08;;;;;;;10.27;3.90;;;13.10;89.20;;;;;;5031621;28;20448;-67
2023/03/30 06:07:36;;;;;;;11.00;4.17;;;13.30;88.70;;;;;;5031530;28;20828;-67
2023/03/30 06:10:05;;;;;;;11.87;4.70;;;13.30;88.70;;;;;;5031472;28;20451;-68
2023/03/30 06:12:32;;;;;;;14.70;4.50;;;13.30;89.10;;;;;;5031086;28;20459;-68
2023/03/30 06:15:01;;;;;;;15.40;4.40;;;13.20;89.80;;;;;;5031113;28;20449;-67
2023/03/30 06:17:27;;;;;;;10.10;4.53;;;13.10;90.00;;;;;;5030888;28;20494;-67
2023/03/30 06:19:54;;;;;;;14.47;5.43;;;13.10;90.50;;;;;;5030763;28;21009;-68
2023/03/30 06:22:21;;;;;;;10.87;5.27;;;13.00;91.30;;;;;;5031040;28;20830;-67
2023/03/30 06:24:48;;;;;;;14.07;5.97;;;12.90;91.50;;;;;;5030780;28;20478;-67
2023/03/30 06:27:16;;;;;;;12.57;5.07;;;12.80;92.10;;;;;;5030324;28;20473;-67
2023/03/30 06:29:44;;;;;;;12.20;5.00;;;12.70;92.60;;;;;;5030413;28;21158;-67
2023/03/30 06:32:10;;;;;;;14.93;4.50;;;12.70;92.30;;;;;;5031051;28;20456;-65
2023/03/30 06:34:37;;;;;;;14.73;5.33;;;12.70;92.40;;;;;;5030296;28;20443;-68
2023/03/30 06:37:06;;;;;;;15.97;5.83;;;12.70;92.70;;;;;;5030853;28;20458;-66
2023/03/30 06:39:36;;;;;;;11.50;5.53;;;12.70;92.80;;;;;;5030602;28;20511;-67
2023/03/30 06:42:03;;;;;;;13.43;5.00;;;12.70;92.80;;;;;;5030670;28;20480;-65
2023/03/30 06:44:32;;;;;;;17.70;5.00;;;12.80;92.50;;;;;;5030199;28;20448;-64
2023/03/30 06:47:00;;;;;;;13.57;4.20;;;13.00;91.30;;;;;;5030740;28;20463;-67
2023/03/30 06:49:27;;;;;;;12.43;4.27;;;13.10;90.50;;;;;;5030275;28;20460;-65
2023/03/30 06:51:53;;;;;;;15.27;4.40;;;13.20;90.50;;;;;;5030504;28;20442;-66
2023/03/30 06:54:20;;;;;;;12.17;4.37;;;13.20;90.50;;;;;;5030260;28;20456;-66
2023/03/30 06:56:48;;;;;;;13.80;5.77;;;13.20;90.20;;;;;;5030392;28;20532;-64
2023/03/30 06:59:16;;;;;;;11.60;4.27;;;13.20;89.20;;;;;;5030492;28;20495;-64
2023/03/30 07:01:44;;;;;;;11.97;5.00;;;13.20;89.00;;;;;;5030319;28;20463;-65
2023/03/30 07:04:11;;;;;;;12.80;4.47;;;13.30;89.10;;;;;;5030112;28;20453;-64
2023/03/30 07:06:38;;;;;;;12.17;5.10;;;13.30;89.70;;;;;;5030198;28;20448;-65
2023/03/30 07:09:05;;;;;;;11.53;4.00;;;13.40;89.90;;;;;;5030385;28;20840;-65
2023/03/30 07:11:32;;;;;;;12.20;4.20;;;13.40;90.60;;;;;;5030284;28;20457;-65
2023/03/30 07:14:00;;;;;;;11.70;4.97;;;13.40;91.20;;;;;;5030211;28;20444;-65
2023/03/30 07:16:27;;;;;;;11.97;4.70;;;13.30;91.20;;;;;;5030349;28;20805;-66
2023/03/30 07:18:55;;;;;;;19.60;5.93;;;13.20;91.70;;;;;;5030181;28;20483;-65
2023/03/30 07:21:22;;;;;;;18.53;5.27;;;13.20;91.80;;;;;;5030074;28;20489;-65
2023/03/30 07:23:49;;;;;;;14.23;5.37;;;13.10;92.50;;;;;;5029754;28;20456;-65
2023/03/30 07:26:16;;;;;;;9.30;4.63;;;12.90;93.00;;;;;;5029785;28;20535;-65
2023/03/30 07:28:44;;;;;;;9.30;5.40;;;12.70;93.70;;;;;;5029838;28;20465;-66
2023/03/30 07:31:13;;;;;;;11.70;4.83;;;12.60;94.00;;;;;;5029816;28;20461;-65
2023/03/30 07:33:40;;;;;;;12.03;5.00;;;12.50;94.50;;;;;;5029455;28;20537;-66
2023/03/30 07:36:08;;;;;;;15.27;5.97;;;12.40;95.10;;;;;;5029914;28;20449;-63
2023/03/30 07:38:35;;;;;;;14.53;4.70;;;12.50;94.90;;;;;;5029288;28;20726;-65
2023/03/30 07:41:07;;;;;;;10.30;4.83;;;12.40;95.00;;;;;;5029511;28;20470;-64
2023/03/30 07:43:34;;;;;;;10.57;5.20;;;12.30;95.20;;;;;;5029362;28;20451;-66
2023/03/30 07:46:00;;;;;;;11.17;5.20;;;12.20;94.90;;;;;;5029809;28;20624;-66
2023/03/30 07:48:27;;;;;;;15.70;5.67;;;12.20;95.60;;;;;;5029475;28;20468;-65
2023/03/30 07:51:00;;;;;;;9.43;5.37;;;12.10;96.00;;;;;;5029531;28;20445;-65
2023/03/30 07:53:28;;;;;;;11.07;5.20;;;12.10;95.90;;;;;;5030082;28;20445;-65
2023/03/30 07:55:55;;;;;;;14.57;7.97;;;12.10;95.90;;;;;;5029925;28;20817;-64
2023/03/30 07:58:26;;;;;;;12.60;5.00;;;12.10;96.20;;;;;;5029763;28;20908;-65
2023/03/30 08:00:53;;;;;;;11.53;6.17;;;12.10;96.30;;;;;;5030181;28;20546;-69
2023/03/30 08:03:21;;;;;;;10.73;4.87;;;12.10;96.20;;;;;;5029165;28;20452;-67
2023/03/30 08:05:59;;;;;;;11.50;4.87;;;12.10;96.40;;;;;;5029513;28;20807;-66
2023/03/30 08:08:27;;;;;;;12.57;5.00;;;12.20;96.50;;;;;;5029410;28;20469;-68
2023/03/30 08:10:54;;;;;;;13.23;6.13;;;12.30;96.10;;;;;;5029580;28;20457;-67
2023/03/30 08:13:22;;;;;;;10.80;5.77;;;12.40;96.00;;;;;;5029180;28;20465;-65
2023/03/30 08:15:49;;;;;;;11.50;5.47;;;12.50;95.60;;;;;;5020023;28;20466;-65
2023/03/30 08:18:16;;;;;;;12.67;6.00;;;12.50;95.80;;;;;;5009364;28;20858;-66
2023/03/30 08:20:44;;;;;;;10.40;5.27;;;12.30;96.20;;;;;;5016956;28;20943;-65
2023/03/30 08:23:12;;;;;;;9.37;4.90;;;12.20;96.50;;;;;;5029202;28;20903;-67
2023/03/30 08:25:41;;;;;;;12.33;6.00;;;12.20;96.50;;;;;;5029106;28;20519;-67
2023/03/30 08:28:07;;;;;;;10.37;6.00;;;12.20;96.70;;;;;;5029389;28;20469;-67
2023/03/30 08:30:34;;;;;;;10.37;5.17;;;12.20;96.50;;;;;;5029167;28;20917;-67
2023/03/30 08:33:01;;;;;;;16.23;5.77;;;12.20;96.50;;;;;;5029112;28;20455;-66
2023/03/30 08:35:28;;;;;;;7.47;4.40;;;12.20;96.70;;;;;;5029339;28;20451;-68
2023/03/30 08:37:55;;;;;;;7.13;4.80;;;12.20;96.10;;;;;;5029097;28;20542;-66
2023/03/30 08:40:23;;;;;;;10.90;5.00;;;12.20;95.70;;;;;;5028866;28;20464;-67
2023/03/30 08:43:03;;;;;;;5.60;4.63;;;12.20;95.60;;;;;;5028725;28;20450;-67
2023/03/30 08:45:36;;;;;;;12.30;5.97;;;12.30;95.70;;;;;;5029105;28;20456;-65
2023/03/30 08:48:05;;;;;;;9.77;5.03;;;12.40;96.30;;;;;;5028957;28;20466;-68
2023/03/30 08:50:33;;;;;;;15.63;4.90;;;12.60;96.70;;;;;;5029293;28;20436;-66
2023/03/30 08:53:00;;;;;;;7.43;4.80;;;12.60;96.20;;;;;;5032238;28;20459;-68
2023/03/30 08:55:35;;;;;;;7.00;3.80;;;12.70;96.20;;;;;;5032500;28;20451;-73
2023/03/30 08:58:09;;;;;;;13.03;3.97;;;12.70;95.70;;;;;;5032499;28;20464;-67
2023/03/30 09:00:43;;;;;;;8.20;3.73;;;12.70;95.50;;;;;;5032486;28;20541;-68
2023/03/30 09:03:26;;;;;;;7.60;3.73;;;12.50;95.50;;;;;;5032266;28;20451;-68
2023/03/30 09:05:58;;;;;;;5.30;4.63;;;12.40;95.70;;;;;;5032562;28;20441;-68
2023/03/30 09:08:28;;;;;;;7.37;4.60;;;12.30;95.80;;;;;;5032587;28;20474;-69
2023/03/30 09:10:59;;;;;;;8.73;4.30;;;12.20;95.80;;;;;;5032765;28;20458;-67
2023/03/30 09:13:32;;;;;;;8.20;4.70;;;12.20;96.20;;;;;;5032272;28;20451;-69
2023/03/30 09:16:04;;;;;;;6.37;5.00;;;12.20;96.30;;;;;;5032340;28;20898;-67
2023/03/30 09:18:34;;;;;;;9.50;6.27;;;12.30;96.70;;;;;;5032088;28;21230;-68
2023/03/30 09:21:04;;;;;;;11.17;5.23;;;12.40;96.30;;;;;;5032137;28;20446;-67
2023/03/30 09:23:32;;;;;;;11.30;5.43;;;12.50;95.60;;;;;;5031802;28;20546;-68
2023/03/30 09:26:10;;;;;;;9.60;5.43;;;12.50;96.10;;;;;;5032026;28;20528;-68
2023/03/30 09:28:47;;;;;;;7.10;5.30;;;12.60;96.00;;;;;;5031963;28;20993;-68
2023/03/30 09:31:18;;;;;;;8.57;5.60;;;12.60;96.30;;;;;;5031718;28;20452;-68
2023/03/30 09:33:48;;;;;;;8.70;5.63;;;12.70;96.20;;;;;;5031967;28;20455;-69
2023/03/30 09:36:17;;;;;;;5.27;4.70;;;12.80;96.10;;;;;;5032002;28;20452;-69
2023/03/30 09:38:45;;;;;;;11.63;5.17;;;12.80;96.00;;;;;;5031853;28;20482;-65
2023/03/30 09:41:21;;;;;;;6.90;4.63;;;12.80;96.20;;;;;;5031600;28;20456;-65
2023/03/30 09:43:51;;;;;;;7.80;6.60;;;13.00;96.50;;;;;;5031494;28;20590;-67
2023/03/30 09:46:18;;;;;;;10.73;7.87;;;13.10;95.90;;;;;;5031854;28;20449;-66
2023/03/30 09:48:46;;;;;;;13.23;6.50;;;13.40;95.30;;;;;;5031557;28;20471;-67
2023/03/30 09:51:22;;;;;;;8.70;5.00;;;13.40;95.20;;;;;;5031199;28;20445;-68
2023/03/30 09:53:51;;;;;;;9.10;5.10;;;13.40;94.80;;;;;;5030183;28;20445;-68
2023/03/30 09:56:21;;;;;;;6.40;3.90;;;13.60;95.10;;;;;;5031157;28;20454;-67
2023/03/30 09:58:49;;;;;;;7.77;3.83;;;13.50;94.40;;;;;;5031333;28;20484;-69
2023/03/30 10:01:18;;;;;;;4.27;3.00;;;13.50;94.90;;;;;;5031767;28;20471;-66
2023/03/30 10:04:04;;;;;;;5.50;4.40;;;13.40;92.60;;;;;;5031186;28;20958;-67
2023/03/30 10:06:34;;;;;;;8.93;4.97;;;13.40;94.30;;;;;;5031379;28;20449;-67
2023/03/30 10:09:05;;;;;;;9.07;3.30;;;13.50;94.40;;;;;;5031385;28;21002;-67
2023/03/30 10:11:36;;;;;;;8.10;4.23;;;13.40;93.60;;;;;;5031732;28;20446;-67
2023/03/30 10:14:06;;;;;;;8.00;3.60;;;13.50;93.80;;;;;;5030799;28;20463;-69
2023/03/30 10:16:33;;;;;;;6.60;3.63;;;13.50;93.40;;;;;;5031326;28;20862;-68
2023/03/30 10:19:02;;;;;;;9.87;3.57;;;13.50;93.70;;;;;;5030820;28;20503;-68
2023/03/30 10:21:30;;;;;;;4.70;3.33;;;13.50;93.30;;;;;;5031047;28;20445;-68
2023/03/30 10:24:07;;;;;;;6.80;4.50;;;13.60;93.60;;;;;;5030807;28;20460;-68
2023/03/30 10:26:36;;;;;;;6.10;3.60;;;13.90;93.90;;;;;;5031164;28;20450;-68
2023/03/30 10:29:06;;;;;;;4.47;4.07;;;14.20;93.40;;;;;;5030827;28;20479;-67
2023/03/30 10:31:36;;;;;;;6.67;3.77;;;14.40;93.40;;;;;;5030911;28;20451;-67
2023/03/30 10:34:05;;;;;;;10.57;4.03;;;14.40;92.60;;;;;;5030892;28;20445;-66
2023/03/30 10:36:34;;;;;;;4.07;3.67;;;14.50;92.80;;;;;;5030795;28;21013;-69
2023/03/30 10:39:07;;;;;;;6.60;3.77;;;14.60;92.50;;;;;;5030782;28;20865;-67
2023/03/30 10:41:37;;;;;;;6.03;4.10;;;14.60;92.30;;;;;;5030615;28;20463;-67
2023/03/30 10:44:19;;;;;;;3.73;3.00;;;14.60;92.50;;;;;;5030338;28;20457;-68
2023/03/30 10:46:48;;;;;;;4.50;3.60;;;14.60;93.30;;;;;;5030566;28;20451;-68
2023/03/30 10:49:30;;;;;;;5.77;3.50;;;14.90;92.00;;;;;;5030763;28;20470;-66
2023/03/30 10:52:03;;;;;;;5.10;3.17;;;15.20;90.80;;;;;;5021936;28;20531;-67
2023/03/30 10:54:33;;;;;;;6.13;3.40;;;15.50;87.60;;;;;;5019991;28;20842;-67
2023/03/30 10:57:08;;;;;;;4.80;2.50;;;15.40;88.80;;;;;;5013592;28;20942;-68
2023/03/30 11:00:05;;;;;;;3.93;3.47;;;15.20;87.00;;;;;;5011032;28;20892;-67
2023/03/30 11:02:47;;;;;;;6.37;3.60;;;15.10;87.90;;;;;;5010570;28;20453;-67
2023/03/30 11:05:17;;;;;;;4.03;3.20;;;15.00;88.30;;;;;;5009223;28;20802;-66
2023/03/30 11:07:50;;;;;;;5.77;3.13;;;15.00;89.80;;;;;;5028583;28;20441;-65
2023/03/30 11:10:20;;;;;;;3.73;2.90;;;15.10;89.00;;;;;;5029597;28;20446;-66
2023/03/30 11:12:54;;;;;;;6.33;3.77;;;15.30;89.00;;;;;;5029239;28;21009;-65
2023/03/30 11:15:28;;;;;;;4.80;3.70;;;15.70;85.50;;;;;;5028792;28;20543;-67
2023/03/30 11:18:01;;;;;;;3.73;2.77;;;16.10;83.50;;;;;;5026527;28;20484;-69
2023/03/30 11:20:31;;;;;;;3.33;2.80;;;16.50;79.10;;;;;;5027937;28;20483;-67
2023/03/30 11:23:13;;;;;;;3.27;2.70;;;16.80;77.40;;;;;;5029336;28;20450;-67
2023/03/30 11:25:49;;;;;;;4.80;2.93;;;16.90;77.10;;;;;;5029418;28;20469;-68
2023/03/30 11:28:27;;;;;;;5.87;2.80;;;16.90;73.50;;;;;;5029357;28;20987;-67
2023/03/30 11:31:03;;;;;;;3.40;2.50;;;16.90;72.80;;;;;;5025497;28;20461;-67
2023/03/30 11:33:36;;;;;;;5.13;3.00;;;16.90;72.50;;;;;;5029884;28;20540;-70
2023/03/30 11:36:10;;;;;;;4.83;2.97;;;17.00;74.00;;;;;;5030016;28;20936;-67
2023/03/30 11:38:45;;;;;;;3.80;3.47;;;17.00;70.20;;;;;;5030118;28;20484;-66
2023/03/30 11:41:15;;;;;;;4.60;2.47;;;16.90;69.20;;;;;;5029483;28;20446;-69
2023/03/30 11:43:43;;;;;;;6.13;2.20;;;17.10;69.80;;;;;;5013643;28;20508;-67
2023/03/30 11:46:19;;;;;;;3.10;2.53;;;17.60;69.20;;;;;;5029110;28;20448;-68
2023/03/30 11:49:06;;;;;;;3.87;3.03;;;17.80;69.10;;;;;;5029349;28;20457;-68
2023/03/30 11:51:44;;;;;;;6.07;3.00;;;17.60;71.00;;;;;;5021467;28;20482;-68
2023/03/30 11:54:28;;;;;;;4.30;3.00;;;17.60;73.20;;;;;;5019594;28;20463;-70
2023/03/30 11:57:06;;;;;;;3.43;3.07;;;17.60;72.10;;;;;;5023260;28;20492;-69
2023/03/30 11:59:40;;;;;;;2.47;2.27;;;17.60;70.00;;;;;;5019622;28;21161;-66
2023/03/30 12:02:18;;;;;;;5.87;3.17;;;17.50;70.30;;;;;;5027690;28;20445;-67
2023/03/30 12:04:48;;;;;;;4.90;2.83;;;17.20;70.90;;;;;;5019956;28;20490;-67
2023/03/30 12:07:28;;;;;;;6.63;3.03;;;17.40;71.50;;;;;;5012103;28;20446;-69
2023/03/30 12:09:56;;;;;;;3.93;2.80;;;17.30;72.00;;;;;;5009847;28;20464;-68
2023/03/30 12:12:31;;;;;;;10.67;2.73;;;17.40;71.10;;;;;;5009667;28;20451;-67
2023/03/30 12:15:11;;;;;;;3.47;2.30;;;17.40;68.70;;;;;;5009589;28;20547;-68
2023/03/30 12:17:47;;;;;;;4.57;2.57;;;17.20;68.80;;;;;;5009442;28;20890;-68
2023/03/30 12:20:27;;;;;;;4.10;2.70;;;16.80;67.80;;;;;;5009582;28;20478;-67
2023/03/30 12:22:58;;;;;;;5.13;2.37;;;16.70;69.50;;;;;;5009317;28;20457;-67
2023/03/30 12:25:33;;;;;;;2.80;2.47;;;16.70;66.90;;;;;;5009514;28;20454;-69
2023/03/30 12:28:09;;;;;;;5.93;2.77;;;16.50;68.90;;;;;;5013285;28;20476;-68
2023/03/30 12:30:43;;;;;;;5.23;2.70;;;16.60;71.70;;;;;;5013414;28;20455;-68
2023/03/30 12:33:17;;;;;;;3.53;2.67;;;17.30;67.80;;;;;;5013106;28;20450;-68
2023/03/30 12:35:59;;;;;;;6.20;3.33;;;17.50;66.00;;;;;;5013089;28;20543;-68
2023/03/30 12:38:37;;;;;;;4.77;3.20;;;18.30;64.30;;;;;;5013118;28;20480;-67
2023/03/30 12:41:17;;;;;;;8.50;3.87;;;19.70;61.90;;;;;;5012777;28;21000;-67
2023/03/30 12:44:23;;;;;;;9.77;2.27;;;20.70;55.40;;;;;;5012936;28;20500;-67
2023/03/30 12:47:01;;;;;;;6.53;3.27;;;20.80;54.80;;;;;;5012934;28;20453;-66
2023/03/30 12:49:40;;;;;;;5.53;3.20;;;20.20;56.00;;;;;;5029722;28;20979;-66
2023/03/30 12:52:12;;;;;;;3.90;3.17;;;19.70;56.30;;;;;;5026034;28;20446;-67
2023/03/30 12:55:16;;;;;;;6.80;2.83;;;19.80;58.60;;;;;;5025329;28;20442;-70
2023/03/30 12:57:57;;;;;;;6.00;3.20;;;19.80;57.80;;;;;;5015730;28;20446;-67
2023/03/30 13:00:44;;;;;;;4.90;3.40;;;19.20;56.90;;;;;;5031524;28;20480;-67
2023/03/30 13:03:37;;;;;;;5.27;3.07;;;18.90;58.80;;;;;;5026293;28;20803;-65